Time;durP1;ratioP1;P1;durP2;ratioP2;P2;SDS_P1;SDS_P2;PMS_P1;PMS_P2;Temp;Humidity;BMP_temperature;BMP_pressure;BME280_temperature;BME280_humidity;BME280_pressure;Samples;Min_cycle;Max_cycle;Signal;HPM_P1;HPM_P2
2023/04/28 00:00:53;;;;;;;7.40;4.80;;;;;;;12.88;46.59;101258.25;5101902;28;20040;-61
2023/04/28 00:03:21;;;;;;;8.90;5.20;;;;;;;12.88;46.79;101250.16;5094914;28;20076;-61
2023/04/28 00:05:52;;;;;;;7.95;5.30;;;;;;;12.88;47.36;101252.03;5104927;28;20055;-61
2023/04/28 00:08:22;;;;;;;10.77;5.65;;;;;;;12.86;47.24;101249.56;5102637;28;20048;-61
2023/04/28 00:10:50;;;;;;;13.68;7.20;;;;;;;12.85;47.22;101253.31;5108479;28;20142;-60
2023/04/28 00:13:17;;;;;;;17.40;12.50;;;;;;;12.84;47.55;101246.25;5115936;28;20055;-60
2023/04/28 00:15:45;;;;;;;28.05;17.05;;;;;;;12.82;47.62;101240.28;5110346;28;20493;-60
2023/04/28 00:18:13;;;;;;;20.60;12.82;;;;;;;12.81;48.01;101230.53;5103421;28;20466;-61
2023/04/28 00:20:41;;;;;;;19.73;10.52;;;;;;;12.80;47.75;101231.59;5106462;28;20044;-60
2023/04/28 00:23:10;;;;;;;13.30;9.38;;;;;;;12.79;48.01;101227.22;5105417;28;20079;-60
2023/04/28 00:25:38;;;;;;;14.27;10.18;;;;;;;12.69;48.04;101218.84;5109876;28;20040;-60
2023/04/28 00:28:06;;;;;;;14.90;10.13;;;;;;;12.78;47.94;101232.84;5100358;28;20059;-60
2023/04/28 00:30:34;;;;;;;14.68;9.05;;;;;;;12.76;48.18;101226.88;5097446;28;20058;-60
2023/04/28 00:33:02;;;;;;;15.77;9.75;;;;;;;12.75;47.88;101217.13;5103456;28;20051;-60
2023/04/28 00:35:30;;;;;;;19.48;8.40;;;;;;;12.74;48.26;101215.47;5093470;28;20488;-60
2023/04/28 00:37:57;;;;;;;14.27;8.93;;;;;;;12.71;48.14;101195.19;5094399;28;20063;-60
2023/04/28 00:40:33;;;;;;;17.23;8.55;;;;;;;12.71;48.26;101198.69;5099177;28;20040;-60
2023/04/28 00:43:01;;;;;;;12.98;7.80;;;;;;;12.69;48.44;101195.41;5106463;28;20127;-60
2023/04/28 00:45:29;;;;;;;12.52;7.70;;;;;;;12.68;48.32;101193.75;5097596;28;20239;-60
2023/04/28 00:47:58;;;;;;;11.05;6.95;;;;;;;12.67;48.39;101189.41;5099417;28;20082;-60
2023/04/28 00:50:26;;;;;;;10.68;6.90;;;;;;;12.66;48.73;101179.69;5094908;28;20101;-60
2023/04/28 00:52:54;;;;;;;9.55;6.50;;;;;;;12.65;48.67;101183.44;5105667;28;20574;-60
2023/04/28 00:55:24;;;;;;;10.93;6.55;;;;;;;12.64;48.29;101178.28;5101887;28;20063;-60
2023/04/28 00:57:56;;;;;;;11.70;7.05;;;;;;;12.63;48.34;101177.44;5090872;28;20111;-60
2023/04/28 01:00:23;;;;;;;11.55;7.07;;;;;;;12.63;48.83;101171.22;5100987;28;20130;-60
2023/04/28 01:02:52;;;;;;;10.60;6.50;;;;;;;12.61;48.45;101163.38;5097316;28;20111;-60
2023/04/28 01:05:20;;;;;;;11.10;6.80;;;;;;;12.60;48.50;101159.03;5099687;28;20097;-60
2023/04/28 01:07:48;;;;;;;9.38;6.43;;;;;;;12.60;48.54;101150.13;5101010;28;20128;-60
2023/04/28 01:10:16;;;;;;;10.43;6.30;;;;;;;12.58;48.84;101147.63;5093224;28;20058;-60
2023/04/28 01:12:43;;;;;;;9.52;6.15;;;;;;;12.56;48.67;101147.03;5088559;28;20075;-60
2023/04/28 01:15:17;;;;;;;9.07;5.50;;;;;;;12.57;48.65;101148.69;5092812;28;20055;-60
2023/04/28 01:17:45;;;;;;;11.63;5.90;;;;;;;12.56;49.07;101159.69;5093343;28;20044;-60
2023/04/28 01:20:13;;;;;;;8.85;5.63;;;;;;;12.54;48.93;101157.22;5107391;28;20413;-60
2023/04/28 01:22:41;;;;;;;11.23;6.60;;;;;;;12.55;48.71;101156.19;5114431;28;20040;-59
2023/04/28 01:25:10;;;;;;;9.85;6.28;;;;;;;12.54;48.68;101149.16;5099422;28;20066;-60
2023/04/28 01:27:38;;;;;;;11.43;5.75;;;;;;;12.53;49.20;101155.59;5089030;28;20066;-60
2023/04/28 01:30:07;;;;;;;10.05;5.80;;;;;;;12.54;48.85;101149.16;5100776;28;20043;-60
2023/04/28 01:32:35;;;;;;;8.60;4.88;;;;;;;12.54;49.25;101145.63;5106104;28;20086;-60
2023/04/28 01:35:03;;;;;;;10.90;5.32;;;;;;;12.53;48.81;101146.69;5102275;28;20099;-60
2023/04/28 01:37:31;;;;;;;8.45;5.40;;;;;;;12.51;48.90;101138.00;5101003;28;20055;-60
2023/04/28 01:39:58;;;;;;;9.60;5.35;;;;;;;12.50;48.96;101134.47;5102856;28;20111;-60
2023/04/28 01:42:28;;;;;;;8.40;5.35;;;;;;;12.49;49.27;101132.81;5094910;28;20040;-60
2023/04/28 01:44:55;;;;;;;8.27;4.68;;;;;;;12.49;49.06;101134.69;5109085;28;20059;-60
2023/04/28 01:47:23;;;;;;;9.80;5.85;;;;;;;12.48;49.00;101127.66;5100062;28;20165;-61
2023/04/28 01:49:51;;;;;;;8.88;5.07;;;;;;;12.47;48.93;101124.16;5098914;28;20066;-60
2023/04/28 01:52:21;;;;;;;7.97;4.95;;;;;;;12.47;49.26;101124.16;5105082;28;20040;-60
2023/04/28 01:54:49;;;;;;;7.63;4.50;;;;;;;12.47;49.31;101134.09;5101695;28;20111;-60
2023/04/28 01:57:17;;;;;;;8.55;5.63;;;;;;;12.43;49.22;101116.75;5090334;28;20071;-60
2023/04/28 01:59:48;;;;;;;7.63;5.05;;;;;;;12.44;49.49;101116.50;5093457;28;20405;-60
2023/04/28 02:02:16;;;;;;;9.63;5.40;;;;;;;12.41;49.63;101108.88;5098196;28;20054;-60
2023/04/28 02:04:44;;;;;;;11.30;5.32;;;;;;;12.42;49.68;101121.31;5101124;28;20067;-60
2023/04/28 02:07:11;;;;;;;9.73;5.13;;;;;;;12.42;49.55;101128.56;5098972;28;20078;-60
2023/04/28 02:09:39;;;;;;;8.63;5.30;;;;;;;12.42;49.59;101123.19;5098807;28;20068;-60
2023/04/28 02:12:08;;;;;;;8.30;5.07;;;;;;;12.39;49.72;101121.75;5088021;28;20533;-60
2023/04/28 02:14:35;;;;;;;8.05;5.57;;;;;;;12.39;50.24;101132.53;5095229;28;20040;-59
2023/04/28 02:17:05;;;;;;;7.57;5.10;;;;;;;12.38;49.77;101125.50;5098616;28;20048;-60
2023/04/28 02:19:32;;;;;;;11.27;5.18;;;;;;;12.38;49.95;101114.72;5094801;28;20049;-60
2023/04/28 02:22:00;;;;;;;9.88;5.63;;;;;;;12.35;49.90;101105.22;5093002;28;20040;-60
2023/04/28 02:24:28;;;;;;;8.65;4.90;;;;;;;12.35;50.37;101097.13;5105612;28;20063;-60
2023/04/28 02:26:56;;;;;;;9.15;5.38;;;;;;;12.34;50.28;101092.78;5102540;28;20048;-59
2023/04/28 02:29:24;;;;;;;9.93;5.53;;;;;;;12.34;50.49;101100.88;5093074;28;20072;-60
2023/04/28 02:31:52;;;;;;;8.70;5.40;;;;;;;12.33;50.55;101079.53;5101811;28;20079;-61
2023/04/28 02:34:21;;;;;;;9.18;5.45;;;;;;;12.31;50.43;101082.47;5094264;28;20718;-60
2023/04/28 02:36:49;;;;;;;8.27;5.40;;;;;;;12.32;50.99;101077.91;5103420;28;20047;-59
2023/04/28 02:39:16;;;;;;;7.20;4.80;;;;;;;12.30;50.68;101069.22;5087106;28;20064;-60
2023/04/28 02:41:44;;;;;;;9.23;5.68;;;;;;;12.31;50.71;101057.41;5096595;28;20107;-61
2023/04/28 02:44:12;;;;;;;8.13;4.68;;;;;;;12.28;50.95;101033.59;5100120;28;20171;-60
2023/04/28 02:46:40;;;;;;;7.85;5.25;;;;;;;12.28;51.02;101033.59;5094768;28;20040;-60
2023/04/28 02:49:07;;;;;;;11.65;5.68;;;;;;;12.27;51.13;101021.16;5101575;28;20060;-60
2023/04/28 02:51:37;;;;;;;8.02;5.32;;;;;;;12.25;51.32;101018.69;5101924;28;20076;-59
2023/04/28 02:54:04;;;;;;;9.00;5.32;;;;;;;12.25;51.22;101007.94;5085814;28;20059;-60
2023/04/28 02:56:32;;;;;;;13.32;5.55;;;;;;;12.25;51.36;101017.88;5091168;28;20119;-61
2023/04/28 02:59:00;;;;;;;9.90;5.60;;;;;;;12.23;51.31;101015.41;5096445;28;20050;-60
2023/04/28 03:01:27;;;;;;;7.93;5.60;;;;;;;12.23;51.35;101020.81;5116473;28;20046;-60
2023/04/28 03:03:55;;;;;;;8.00;5.57;;;;;;;12.22;51.67;101035.34;5099391;28;20044;-60
2023/04/28 03:06:23;;;;;;;7.13;5.38;;;;;;;12.22;51.31;101032.63;5099385;28;20485;-60
2023/04/28 03:08:53;;;;;;;9.02;5.95;;;;;;;12.23;51.70;101023.50;5097452;28;20048;-59
2023/04/28 03:11:20;;;;;;;7.65;5.60;;;;;;;12.23;51.47;101030.75;5093289;28;20060;-60
2023/04/28 03:13:48;;;;;;;12.93;5.97;;;;;;;12.23;51.53;101028.06;5092011;28;20054;-60
2023/04/28 03:16:16;;;;;;;8.77;5.45;;;;;;;12.21;51.50;101022.91;5100341;28;20048;-60
2023/04/28 03:18:43;;;;;;;10.40;5.82;;;;;;;12.21;51.47;101022.09;5097857;28;20079;-60
2023/04/28 03:21:11;;;;;;;7.55;4.88;;;;;;;12.20;51.47;101036.59;5094627;28;20044;-60
2023/04/28 03:23:39;;;;;;;9.85;5.55;;;;;;;12.19;51.58;101035.78;5083994;28;20300;-60
2023/04/28 03:26:08;;;;;;;10.90;6.20;;;;;;;12.19;51.72;101027.69;5102584;28;20116;-60
2023/04/28 03:28:36;;;;;;;8.82;5.28;;;;;;;12.18;52.03;101034.13;5101769;28;20302;-60
2023/04/28 03:31:03;;;;;;;7.57;5.22;;;;;;;12.18;51.98;101028.75;5098004;28;20079;-60
2023/04/28 03:33:31;;;;;;;8.70;5.85;;;;;;;12.17;52.03;101026.28;5104967;28;20036;-60
2023/04/28 03:35:59;;;;;;;10.15;5.63;;;;;;;12.17;52.11;101026.28;5094826;28;20461;-60
2023/04/28 03:38:27;;;;;;;10.55;6.15;;;;;;;12.18;52.30;101028.75;5102039;28;20062;-60
2023/04/28 03:40:54;;;;;;;11.15;6.65;;;;;;;12.17;52.49;101027.09;5097581;28;20100;-59
2023/04/28 03:43:23;;;;;;;10.10;5.72;;;;;;;12.17;52.26;101020.91;5099927;28;20292;-60
2023/04/28 03:45:51;;;;;;;9.52;5.50;;;;;;;12.16;52.58;101028.16;5093743;28;20040;-60
2023/04/28 03:48:19;;;;;;;9.75;5.63;;;;;;;12.15;52.39;101018.44;5097157;28;20074;-60
2023/04/28 03:50:47;;;;;;;9.35;5.75;;;;;;;12.15;52.29;101012.22;5097498;28;20077;-60
2023/04/28 03:53:15;;;;;;;10.05;6.10;;;;;;;12.13;52.28;101009.78;5094767;28;20041;-60
2023/04/28 03:55:42;;;;;;;8.07;5.18;;;;;;;12.14;52.28;101005.19;5099034;28;20143;-60
2023/04/28 03:58:10;;;;;;;10.10;5.88;;;;;;;12.12;52.68;100997.38;5093422;28;20048;-60
2023/04/28 04:00:39;;;;;;;11.20;5.47;;;;;;;12.11;52.80;100986.81;5098093;28;20076;-60
2023/04/28 04:03:07;;;;;;;7.47;5.38;;;;;;;12.11;52.79;100986.81;5096229;28;20050;-60
2023/04/28 04:05:35;;;;;;;10.05;5.18;;;;;;;12.10;52.64;100985.16;5091625;28;20533;-60
2023/04/28 04:08:03;;;;;;;8.75;5.10;;;;;;;12.10;52.57;100980.59;5096224;28;20063;-60
2023/04/28 04:10:31;;;;;;;8.23;5.82;;;;;;;12.11;52.56;100992.22;5091731;28;20590;-60
2023/04/28 04:12:58;;;;;;;10.13;5.95;;;;;;;12.09;52.74;100992.44;5081584;28;20084;-60
2023/04/28 04:15:26;;;;;;;10.40;5.95;;;;;;;12.09;52.92;100991.59;5100916;28;20093;-60
2023/04/28 04:17:55;;;;;;;9.75;5.53;;;;;;;12.09;52.72;101005.09;5090297;28;20056;-60
2023/04/28 04:20:23;;;;;;;6.82;4.60;;;;;;;12.08;52.74;101004.25;5102315;28;20043;-61
2023/04/28 04:22:51;;;;;;;9.52;5.53;;;;;;;12.07;53.03;100997.22;5098218;28;20072;-61
2023/04/28 04:25:19;;;;;;;9.07;6.63;;;;;;;12.07;52.97;100994.53;5089470;28;20078;-61
2023/04/28 04:27:49;;;;;;;9.80;5.70;;;;;;;12.05;53.04;100997.44;5093603;28;20072;-60
2023/04/28 04:30:17;;;;;;;8.77;5.40;;;;;;;12.05;52.99;100988.56;5092700;28;20082;-60
2023/04/28 04:32:45;;;;;;;11.55;5.88;;;;;;;12.05;53.09;100989.38;5102347;28;20110;-60
2023/04/28 04:35:14;;;;;;;8.93;5.25;;;;;;;12.05;53.18;100983.16;5091616;28;20036;-61
2023/04/28 04:37:42;;;;;;;9.00;6.20;;;;;;;12.03;53.24;100978.00;5100139;28;20054;-59
2023/04/28 04:40:11;;;;;;;10.35;5.45;;;;;;;12.04;53.45;100981.53;5097590;28;20136;-61
2023/04/28 04:42:39;;;;;;;12.73;5.13;;;;;;;12.05;53.08;100972.38;5102737;28;20055;-60
2023/04/28 04:45:08;;;;;;;9.93;6.03;;;;;;;12.03;53.34;100975.31;5092155;28;20063;-60
2023/04/28 04:47:35;;;;;;;9.43;5.95;;;;;;;12.04;53.43;100970.75;5103025;28;20047;-61
2023/04/28 04:50:03;;;;;;;9.15;5.57;;;;;;;12.03;53.59;100961.00;5099459;28;20282;-60
2023/04/28 04:52:33;;;;;;;10.02;6.40;;;;;;;12.04;53.76;100963.47;5110920;28;20122;-60
2023/04/28 04:55:00;;;;;;;10.73;6.90;;;;;;;12.04;54.04;100959.97;5107845;28;20114;-61
2023/04/28 04:57:28;;;;;;;10.10;5.93;;;;;;;12.04;53.83;100954.59;5099639;28;20307;-60
2023/04/28 04:59:56;;;;;;;13.77;6.05;;;;;;;12.04;53.67;100960.78;4752022;28;10000421;-60
2023/04/28 05:02:24;;;;;;;10.77;6.25;;;;;;;12.04;53.93;100960.78;5103370;28;20045;-60
2023/04/28 05:04:51;;;;;;;9.30;5.63;;;;;;;12.03;53.72;100953.75;5090378;28;20117;-60
2023/04/28 05:07:26;;;;;;;9.68;5.47;;;;;;;12.02;53.71;100954.81;5100933;28;20372;-59
2023/04/28 05:09:55;;;;;;;12.63;6.57;;;;;;;12.02;53.90;100954.81;5094847;28;20054;-60
2023/04/28 05:12:23;;;;;;;9.38;5.35;;;;;;;12.01;53.68;100953.16;5084063;28;20536;-60
2023/04/28 05:14:51;;;;;;;8.63;5.85;;;;;;;12.01;53.67;100953.16;5094121;28;20036;-60
2023/04/28 05:17:19;;;;;;;9.93;5.80;;;;;;;12.01;53.93;100953.16;5094178;28;20253;-62
2023/04/28 05:19:46;;;;;;;10.15;6.35;;;;;;;12.01;54.00;100955.84;5092766;28;20266;-60
2023/04/28 05:22:14;;;;;;;10.20;5.40;;;;;;;12.02;54.38;100960.19;5084172;28;20148;-60
2023/04/28 05:24:42;;;;;;;9.20;5.65;;;;;;;12.02;53.81;100970.97;5101698;28;20103;-60
2023/04/28 05:27:11;;;;;;;9.88;5.32;;;;;;;12.01;54.31;100971.19;5093648;28;20494;-60
2023/04/28 05:29:39;;;;;;;8.35;5.50;;;;;;;12.01;54.04;100969.31;5105469;28;20075;-60
2023/04/28 05:32:06;;;;;;;11.23;5.25;;;;;;;12.01;54.17;100965.81;5097564;28;20153;-60
2023/04/28 05:34:34;;;;;;;7.45;5.13;;;;;;;11.99;54.17;100960.66;5091248;28;20049;-62
2023/04/28 05:37:02;;;;;;;10.88;6.13;;;;;;;12.00;54.47;100953.41;5094904;28;20047;-60
2023/04/28 05:39:29;;;;;;;8.63;5.28;;;;;;;11.99;54.32;100952.56;5097985;28;20048;-61
2023/04/28 05:41:58;;;;;;;8.90;5.28;;;;;;;12.00;54.21;100950.69;5093813;28;20080;-60
2023/04/28 05:44:27;;;;;;;7.88;5.22;;;;;;;11.99;53.99;100949.06;5091132;28;20079;-60
2023/04/28 05:46:55;;;;;;;11.50;5.88;;;;;;;11.99;54.60;100952.56;5108492;28;20070;-60
2023/04/28 05:49:23;;;;;;;10.02;6.00;;;;;;;11.98;54.29;100952.81;5087519;28;20055;-60
2023/04/28 05:51:50;;;;;;;9.15;5.53;;;;;;;11.99;54.50;100954.44;5090003;28;20148;-60
2023/04/28 05:54:18;;;;;;;8.65;5.45;;;;;;;11.98;54.86;100955.50;5096217;28;20635;-60
2023/04/28 05:56:46;;;;;;;8.70;5.63;;;;;;;11.99;54.65;100965.22;5095053;28;20070;-64
2023/04/28 05:59:14;;;;;;;9.80;5.80;;;;;;;11.99;55.00;100957.97;5094656;28;20052;-60
2023/04/28 06:01:44;;;;;;;7.78;5.72;;;;;;;11.90;54.94;100945.03;5093866;28;20074;-60
2023/04/28 06:04:11;;;;;;;10.32;6.30;;;;;;;12.01;54.64;100963.13;5103914;28;20087;-60
2023/04/28 06:06:40;;;;;;;13.07;6.10;;;;;;;11.99;55.05;100957.97;5096254;28;20154;-60
2023/04/28 06:09:08;;;;;;;9.07;5.20;;;;;;;12.00;55.15;100959.59;5100198;28;20515;-60
2023/04/28 06:11:35;;;;;;;8.55;4.80;;;;;;;12.00;54.72;100962.28;5086801;28;20056;-59
2023/04/28 06:14:03;;;;;;;9.00;4.78;;;;;;;12.00;54.86;100959.59;5099864;28;20578;-64
2023/04/28 06:16:31;;;;;;;9.85;4.88;;;;;;;12.01;54.92;100955.84;5089622;28;20066;-60
2023/04/28 06:19:00;;;;;;;9.18;5.15;;;;;;;12.03;55.12;100955.63;5096649;28;20048;-61
2023/04/28 06:21:28;;;;;;;6.70;4.65;;;;;;;12.04;55.26;100949.19;5094403;28;20366;-60
2023/04/28 06:23:56;;;;;;;7.50;4.78;;;;;;;12.03;55.18;100952.94;5095316;28;20117;-62
2023/04/28 06:26:24;;;;;;;7.32;4.82;;;;;;;12.04;55.39;100952.72;5078934;28;20070;-61
2023/04/28 06:28:52;;;;;;;9.60;5.05;;;;;;;12.09;55.81;100946.63;5079423;28;20127;-60
2023/04/28 06:31:19;;;;;;;6.10;4.53;;;;;;;12.10;56.32;100955.53;5094161;28;20111;-62
2023/04/28 06:33:47;;;;;;;7.40;4.38;;;;;;;12.10;55.54;100950.97;5090536;28;20043;-60
2023/04/28 06:36:16;;;;;;;6.55;4.65;;;;;;;12.10;55.72;100955.53;5091125;28;20268;-61
2023/04/28 06:38:45;;;;;;;8.18;4.47;;;;;;;12.10;55.93;100956.34;5080734;28;20054;-65
2023/04/28 06:41:12;;;;;;;8.27;5.15;;;;;;;12.11;56.09;100952.63;5095104;28;20040;-58
2023/04/28 06:43:40;;;;;;;8.50;4.72;;;;;;;12.12;56.90;100945.34;5089467;28;20509;-63
2023/04/28 06:46:09;;;;;;;6.07;4.20;;;;;;;12.14;56.68;100946.75;5099160;28;20469;-61
2023/04/28 06:48:37;;;;;;;9.25;4.88;;;;;;;12.14;57.15;100941.34;5088275;28;20056;-61
2023/04/28 06:51:05;;;;;;;7.72;4.50;;;;;;;12.13;57.11;100934.34;5091546;28;20055;-60
2023/04/28 06:53:34;;;;;;;9.45;4.45;;;;;;;12.17;57.40;100937.38;5098468;28;20055;-60
2023/04/28 06:56:02;;;;;;;8.02;3.75;;;;;;;12.16;57.18;100935.72;5092338;28;20052;-60
2023/04/28 06:58:30;;;;;;;6.15;3.95;;;;;;;12.16;57.65;100933.03;5088873;28;20091;-61
2023/04/28 07:00:58;;;;;;;9.15;4.30;;;;;;;12.16;57.86;100925.78;5088261;28;20048;-61
2023/04/28 07:03:27;;;;;;;8.98;3.80;;;;;;;12.18;58.18;100925.53;5095858;28;20047;-62
2023/04/28 07:05:55;;;;;;;10.55;4.72;;;;;;;12.17;57.78;100924.72;5091425;28;20044;-58
2023/04/28 07:08:23;;;;;;;5.70;3.58;;;;;;;12.17;57.66;100918.50;5088249;28;20107;-58
2023/04/28 07:10:52;;;;;;;5.45;3.50;;;;;;;12.16;57.52;100925.78;5089664;28;20085;-59
2023/04/28 07:13:20;;;;;;;7.97;4.18;;;;;;;12.16;57.62;100924.94;5090815;28;20051;-59
2023/04/28 07:15:47;;;;;;;6.80;3.88;;;;;;;12.18;57.98;100928.25;5085942;28;20580;-59
2023/04/28 07:18:15;;;;;;;6.03;3.80;;;;;;;12.19;58.45;100933.41;5092868;28;20049;-59
2023/04/28 07:20:43;;;;;;;11.93;4.22;;;;;;;12.19;57.90;100933.41;5094090;28;20043;-59
2023/04/28 07:23:11;;;;;;;7.07;4.43;;;;;;;12.22;59.19;100930.25;5096482;28;20051;-59
2023/04/28 07:25:39;;;;;;;6.15;3.90;;;;;;;12.23;59.23;100929.19;5094294;28;20050;-59
2023/04/28 07:28:09;;;;;;;6.03;4.60;;;;;;;12.26;59.04;100925.22;5082992;28;20082;-59
2023/04/28 07:30:36;;;;;;;8.65;3.78;;;;;;;12.29;59.75;100930.97;5096494;28;20095;-60
2023/04/28 07:33:04;;;;;;;9.98;4.50;;;;;;;12.30;59.73;100929.91;5084930;28;20048;-59
2023/04/28 07:35:32;;;;;;;8.40;4.47;;;;;;;12.29;59.19;100936.34;5094245;28;20052;-59
2023/04/28 07:38:00;;;;;;;7.75;4.20;;;;;;;12.32;59.62;100943.16;5094577;28;20048;-59
2023/04/28 07:40:28;;;;;;;5.97;4.45;;;;;;;12.32;59.98;100937.75;5089103;28;20064;-59
2023/04/28 07:42:55;;;;;;;7.45;3.70;;;;;;;12.32;59.66;100949.38;5095863;28;20048;-59
2023/04/28 07:45:25;;;;;;;6.10;4.03;;;;;;;12.31;59.46;100953.13;5093713;28;20422;-59
2023/04/28 07:47:52;;;;;;;7.03;4.40;;;;;;;12.31;59.73;100944.22;5095529;28;20055;-60
2023/04/28 07:50:20;;;;;;;5.80;3.75;;;;;;;12.31;59.82;100945.03;5087972;28;20041;-60
2023/04/28 07:52:48;;;;;;;6.68;4.10;;;;;;;12.31;59.66;100942.34;5101195;28;20059;-59
2023/04/28 07:55:16;;;;;;;7.68;4.45;;;;;;;12.32;60.26;100943.97;5099433;28;20071;-60
2023/04/28 07:57:44;;;;;;;5.93;4.10;;;;;;;12.33;60.32;100950.19;5095816;28;20132;-60
2023/04/28 08:00:12;;;;;;;7.88;4.45;;;;;;;12.33;60.12;100952.88;5094974;28;20048;-60
2023/04/28 08:02:41;;;;;;;10.30;4.65;;;;;;;12.32;60.45;100948.53;5091584;28;20036;-60
2023/04/28 08:05:10;;;;;;;7.55;4.75;;;;;;;12.31;60.42;100945.03;5090545;28;20056;-61
2023/04/28 08:07:38;;;;;;;8.20;4.20;;;;;;;12.34;60.67;100949.13;5098064;28;20111;-61
2023/04/28 08:10:07;;;;;;;6.40;4.78;;;;;;;12.32;60.44;100941.28;5090587;28;20054;-61
2023/04/28 08:12:35;;;;;;;7.80;4.15;;;;;;;12.32;60.10;100943.97;5090801;28;20140;-60
2023/04/28 08:15:03;;;;;;;6.22;4.25;;;;;;;12.33;60.45;100944.78;5099666;28;20062;-60
2023/04/28 08:17:31;;;;;;;5.65;4.10;;;;;;;12.34;60.80;100941.88;5099576;28;20045;-61
2023/04/28 08:20:00;;;;;;;8.10;3.97;;;;;;;12.35;60.91;100937.31;5097903;28;20076;-62
2023/04/28 08:22:28;;;;;;;7.88;4.07;;;;;;;12.35;60.91;100946.22;5110954;28;20494;-62
2023/04/28 08:24:56;;;;;;;8.82;5.15;;;;;;;12.37;62.37;100943.28;5099068;28;20064;-62
2023/04/28 08:27:24;;;;;;;7.18;4.18;;;;;;;12.37;61.10;100943.28;5087306;28;20078;-58
2023/04/28 08:29:52;;;;;;;8.55;4.00;;;;;;;12.37;60.92;100946.78;5083363;28;20062;-60
2023/04/28 08:32:20;;;;;;;6.28;4.32;;;;;;;12.38;60.86;100945.75;5090319;28;20067;-60
2023/04/28 08:34:48;;;;;;;7.72;3.70;;;;;;;12.41;61.06;100949.03;5095597;28;20475;-60
2023/04/28 08:37:17;;;;;;;5.93;3.90;;;;;;;12.42;60.63;100950.69;5098876;28;20083;-59
2023/04/28 08:39:45;;;;;;;7.90;4.10;;;;;;;12.42;60.36;100948.81;5091242;28;20048;-60
2023/04/28 08:42:13;;;;;;;10.93;4.47;;;;;;;12.43;60.37;100953.13;5090619;28;20049;-60
2023/04/28 08:44:41;;;;;;;6.10;4.13;;;;;;;12.44;60.71;100945.88;5090609;28;20086;-63
2023/04/28 08:47:12;;;;;;;6.88;4.20;;;;;;;12.49;61.15;100954.09;5088977;28;20040;-59
2023/04/28 08:49:41;;;;;;;6.65;4.32;;;;;;;12.63;60.55;100944.72;5090844;28;20078;-61
2023/04/28 08:52:11;;;;;;;7.80;4.90;;;;;;;12.81;60.34;100944.63;5094991;28;20052;-61
2023/04/28 08:54:40;;;;;;;8.38;4.28;;;;;;;13.03;59.41;100940.28;5095692;28;20566;-60
2023/04/28 08:57:09;;;;;;;7.45;3.83;;;;;;;13.21;58.20;100947.47;5100724;28;20407;-60
2023/04/28 08:59:40;;;;;;;6.22;4.05;;;;;;;13.43;58.03;100950.34;5095921;28;20044;-60
2023/04/28 09:02:09;;;;;;;7.30;4.50;;;;;;;13.49;57.72;100952.09;5098065;28;20070;-60
2023/04/28 09:04:37;;;;;;;5.55;4.05;;;;;;;13.62;56.85;100948.31;5093740;28;20048;-60
2023/04/28 09:07:11;;;;;;;6.07;3.60;;;;;;;13.70;56.74;100950.63;5095418;28;20044;-60
2023/04/28 09:09:39;;;;;;;6.13;4.00;;;;;;;13.88;57.29;100958.53;5090462;28;20049;-60
2023/04/28 09:12:08;;;;;;;7.05;4.10;;;;;;;14.04;57.02;100946.13;5103614;28;20047;-60
2023/04/28 09:14:37;;;;;;;6.85;4.00;;;;;;;14.20;57.05;100941.81;5097775;28;20123;-60
2023/04/28 09:17:10;;;;;;;7.82;4.30;;;;;;;14.34;56.44;100940.44;5092243;28;20032;-61
2023/04/28 09:19:41;;;;;;;6.57;3.95;;;;;;;14.33;56.27;100931.50;5091566;28;20048;-61
2023/04/28 09:22:09;;;;;;;6.38;4.30;;;;;;;14.19;57.23;100937.47;5090575;28;20055;-61
2023/04/28 09:24:53;;;;;;;8.02;5.32;;;;;;;13.99;57.70;100943.34;5097289;28;20080;-60
2023/04/28 09:27:27;;;;;;;7.50;4.50;;;;;;;13.81;58.14;100952.47;5097081;28;20107;-60
2023/04/28 09:29:55;;;;;;;5.20;4.05;;;;;;;13.66;58.57;100947.59;5099220;28;20048;-60
2023/04/28 09:32:24;;;;;;;8.00;5.20;;;;;;;13.54;59.66;100941.41;5105355;28;20052;-60
2023/04/28 09:34:55;;;;;;;7.35;4.95;;;;;;;13.45;59.65;100942.84;5093622;28;20501;-60
2023/04/28 09:37:25;;;;;;;9.35;5.55;;;;;;;13.39;60.48;100951.88;5100709;28;20032;-60
2023/04/28 09:39:54;;;;;;;7.32;5.50;;;;;;;13.33;61.18;100948.25;5101420;28;20348;-62
2023/04/28 09:42:35;;;;;;;9.48;6.32;;;;;;;13.27;61.95;100957.31;5102170;28;20044;-60
2023/04/28 09:45:04;;;;;;;8.35;5.20;;;;;;;13.25;60.56;100958.59;5095113;28;20098;-60
2023/04/28 09:47:34;;;;;;;10.20;6.50;;;;;;;13.22;63.21;100956.38;5101558;28;20074;-60
2023/04/28 09:50:05;;;;;;;8.00;5.80;;;;;;;13.19;62.84;100960.38;5100044;28;20056;-61
2023/04/28 09:52:34;;;;;;;10.27;5.90;;;;;;;13.16;62.58;100958.16;5101136;28;20052;-60
2023/04/28 09:55:03;;;;;;;7.95;5.80;;;;;;;13.15;63.46;100961.88;5100554;28;20071;-60
2023/04/28 09:57:33;;;;;;;10.45;6.28;;;;;;;13.13;63.12;100958.59;5101800;28;20052;-60
2023/04/28 10:00:05;;;;;;;8.43;6.68;;;;;;;13.11;64.48;100960.69;5101715;28;20075;-60
2023/04/28 10:02:34;;;;;;;8.93;6.47;;;;;;;13.11;64.26;100962.56;5096031;28;20075;-61
2023/04/28 10:05:08;;;;;;;11.43;7.05;;;;;;;13.10;64.07;100960.94;5099174;28;20189;-61
2023/04/28 10:07:37;;;;;;;8.75;6.60;;;;;;;13.16;65.38;100960.84;5095761;28;20047;-60
2023/04/28 10:10:07;;;;;;;9.32;6.22;;;;;;;13.34;64.55;100960.69;5099865;28;20082;-60
2023/04/28 10:12:37;;;;;;;8.70;6.65;;;;;;;13.54;64.14;100960.31;5101267;28;20520;-60
2023/04/28 10:15:07;;;;;;;10.50;6.75;;;;;;;13.75;63.95;100960.72;5111097;28;20055;-60
2023/04/28 10:17:37;;;;;;;8.38;5.28;;;;;;;13.96;61.99;100951.91;5099953;28;20056;-61
2023/04/28 10:20:07;;;;;;;8.60;5.88;;;;;;;14.14;61.86;100950.91;5099523;28;20056;-61
2023/04/28 10:22:52;;;;;;;9.15;5.60;;;;;;;14.15;61.87;100947.97;5100827;28;20044;-61
2023/04/28 10:25:28;;;;;;;8.30;5.88;;;;;;;14.07;62.30;100945.66;5101212;28;20075;-61
2023/04/28 10:27:59;;;;;;;8.18;6.03;;;;;;;13.95;63.51;100942.19;5091080;28;20106;-61
2023/04/28 10:30:28;;;;;;;8.95;5.80;;;;;;;13.83;63.03;100949.53;5099386;28;20044;-61
2023/04/28 10:33:25;;;;;;;9.00;5.03;;;;;;;13.74;63.11;100951.81;5100414;28;20056;-61
2023/04/28 10:35:54;;;;;;;10.05;6.70;;;;;;;13.65;63.81;100945.97;5090566;28;20052;-61
2023/04/28 10:38:22;;;;;;;8.77;6.10;;;;;;;13.60;63.49;100955.84;5100523;28;20048;-61
2023/04/28 10:40:50;;;;;;;8.40;5.93;;;;;;;13.54;63.85;100949.50;5099945;28;20109;-61
2023/04/28 10:43:41;;;;;;;6.32;5.07;;;;;;;13.49;63.77;100952.09;5101930;28;20063;-61
2023/04/28 10:46:10;;;;;;;6.20;5.18;;;;;;;13.45;64.34;100947.41;5085562;28;20108;-61
2023/04/28 10:48:57;;;;;;;6.82;5.25;;;;;;;13.44;64.32;100949.28;5099161;28;20044;-61
2023/04/28 10:51:28;;;;;;;10.90;5.10;;;;;;;13.42;63.63;100954.13;5100130;28;20400;-61
2023/04/28 10:54:24;;;;;;;7.75;5.38;;;;;;;13.41;64.42;100940.84;5101531;28;20131;-61
2023/04/28 10:57:18;;;;;;;6.93;5.03;;;;;;;13.39;64.36;100942.97;5085545;28;20064;-60
2023/04/28 10:59:47;;;;;;;7.72;5.00;;;;;;;13.37;63.66;100942.38;5101064;28;20090;-61
2023/04/28 11:02:37;;;;;;;5.85;4.68;;;;;;;13.35;64.02;100931.81;5108316;28;20048;-61
2023/04/28 11:05:20;;;;;;;6.43;4.68;;;;;;;13.35;64.01;100929.94;5108099;28;20036;-61
2023/04/28 11:08:28;;;;;;;5.82;4.80;;;;;;;13.34;64.00;100925.59;4733013;28;9999867;-61
2023/04/28 11:11:12;;;;;;;6.97;4.72;;;;;;;13.33;63.98;100921.28;5087864;28;20072;-60
2023/04/28 11:13:40;;;;;;;5.68;4.35;;;;;;;13.34;64.30;100922.91;5099162;28;20066;-61
2023/04/28 11:16:10;;;;;;;6.55;4.13;;;;;;;13.34;64.37;100916.69;5090119;28;20097;-62
2023/04/28 11:18:49;;;;;;;7.28;4.53;;;;;;;13.34;64.81;100917.50;5095132;28;20130;-61
2023/04/28 11:21:22;;;;;;;8.05;4.60;;;;;;;13.34;65.45;100922.09;5095030;28;20040;-60
2023/04/28 11:23:51;;;;;;;5.43;3.58;;;;;;;13.25;64.47;100900.03;5093756;28;20048;-60
2023/04/28 11:26:19;;;;;;;7.13;4.60;;;;;;;13.35;64.47;100916.44;5088372;28;20076;-61
2023/04/28 11:28:49;;;;;;;5.75;4.32;;;;;;;13.34;65.41;100914.00;5092726;28;20411;-61
2023/04/28 11:31:20;;;;;;;5.40;3.72;;;;;;;13.37;64.74;100913.50;5089707;28;20044;-61